createdAt,value
2023-02-01T00:00:58.784Z,5.38
2023-02-01T00:03:58.858Z,5.39
2023-02-01T00:06:58.795Z,5.4
2023-02-01T00:09:58.825Z,5.39
2023-02-01T00:12:58.798Z,5.43
2023-02-01T00:15:58.839Z,5.43
2023-02-01T00:18:58.815Z,5.43
2023-02-01T00:21:58.819Z,5.41
2023-02-01T00:24:58.819Z,5.43
2023-02-01T00:27:58.849Z,5.44
2023-02-01T00:30:58.929Z,5.44
2023-02-01T00:33:58.828Z,5.46
2023-02-01T00:36:58.838Z,5.45
2023-02-01T00:39:58.847Z,5.48
2023-02-01T00:42:58.856Z,5.46
2023-02-01T00:45:58.878Z,5.47
2023-02-01T00:48:58.857Z,5.43
2023-02-01T00:51:58.867Z,5.46
2023-02-01T00:54:58.865Z,5.43
2023-02-01T00:57:58.868Z,5.46
2023-02-01T01:00:58.904Z,5.44
2023-02-01T01:03:58.906Z,5.43
2023-02-01T01:06:58.884Z,5.46
2023-02-01T01:09:58.886Z,5.46
2023-02-01T01:12:58.886Z,5.48
2023-02-01T01:15:58.939Z,5.46
2023-02-01T01:18:58.904Z,5.47
2023-02-01T01:21:58.934Z,5.48
2023-02-01T01:24:58.901Z,5.47
2023-02-01T01:27:58.905Z,5.46
2023-02-01T01:30:58.934Z,5.46
2023-02-01T01:33:58.921Z,5.46
2023-02-01T01:36:58.925Z,5.47
2023-02-01T01:39:58.961Z,5.49
2023-02-01T01:42:58.932Z,5.5
2023-02-01T01:45:58.936Z,5.5
2023-02-01T01:48:58.944Z,5.49
2023-02-01T01:51:58.949Z,5.49
2023-02-01T01:54:58.952Z,5.49
2023-02-01T01:57:58.989Z,5.49
2023-02-01T02:00:59.005Z,5.5
2023-02-01T02:03:58.977Z,5.49
2023-02-01T02:06:58.978Z,5.48
2023-02-01T02:10:01.138Z,5.49
2023-02-01T02:12:58.981Z,5.47
2023-02-01T02:15:59.025Z,5.47
2023-02-01T02:18:58.986Z,5.47
2023-02-01T02:21:58.996Z,5.51
2023-02-01T02:24:59.000Z,5.49
2023-02-01T02:27:59.003Z,5.49
2023-02-01T02:30:59.039Z,5.47
2023-02-01T02:33:59.032Z,5.47
2023-02-01T02:36:59.017Z,5.48
2023-02-01T02:39:59.017Z,5.5
2023-02-01T02:42:59.021Z,5.48
2023-02-01T02:45:59.128Z,5.48
2023-02-01T02:48:59.030Z,5.48
2023-02-01T02:51:59.061Z,5.49
2023-02-01T02:54:59.038Z,5.49
2023-02-01T02:57:59.040Z,5.48
2023-02-01T03:00:59.071Z,5.48
2023-02-01T03:03:59.048Z,5.5
2023-02-01T03:06:59.054Z,5.49
2023-02-01T03:09:59.086Z,5.5
2023-02-01T03:12:59.071Z,5.5
2023-02-01T03:15:59.059Z,5.49
2023-02-01T03:18:59.065Z,5.48
2023-02-01T03:22:00.149Z,5.49
2023-02-01T03:24:59.079Z,5.5
2023-02-01T03:27:59.111Z,5.47
2023-02-01T03:30:59.134Z,5.46
2023-02-01T03:33:59.094Z,5.48
2023-02-01T03:36:59.084Z,5.47
2023-02-01T03:39:59.094Z,5.48
2023-02-01T03:42:59.101Z,5.49
2023-02-01T03:45:59.246Z,5.48
2023-02-01T03:48:59.104Z,5.49
2023-02-01T03:51:59.157Z,5.5
2023-02-01T03:54:59.117Z,5.51
2023-02-01T03:57:59.122Z,5.49
2023-02-01T04:00:59.176Z,5.49
2023-02-01T04:03:59.164Z,5.5
2023-02-01T04:06:59.129Z,5.51
2023-02-01T04:09:59.124Z,5.51
2023-02-01T04:12:59.131Z,5.51
2023-02-01T04:15:59.142Z,5.51
2023-02-01T04:18:59.142Z,5.53
2023-02-01T04:21:59.173Z,5.51
2023-02-01T04:24:59.147Z,5.54
2023-02-01T04:27:59.160Z,5.55
2023-02-01T04:30:59.443Z,5.52
2023-02-01T04:33:59.162Z,5.52
2023-02-01T04:36:59.161Z,5.52
2023-02-01T04:39:59.194Z,5.52
2023-02-01T04:42:59.163Z,5.52
2023-02-01T04:45:59.234Z,5.52
2023-02-01T04:48:59.172Z,5.53
2023-02-01T04:51:59.174Z,5.53
2023-02-01T04:54:59.549Z,5.53
2023-02-01T04:57:59.196Z,5.57
2023-02-01T05:00:59.234Z,5.57
2023-02-01T05:03:59.174Z,5.57
2023-02-01T05:06:59.175Z,5.57
2023-02-01T05:09:59.183Z,5.55
2023-02-01T05:12:59.179Z,5.6
2023-02-01T05:15:59.244Z,5.6
2023-02-01T05:18:59.210Z,5.61
2023-02-01T05:21:59.214Z,5.61
2023-02-01T05:24:59.217Z,5.61
2023-02-01T05:27:59.221Z,5.61
2023-02-01T05:30:59.347Z,5.62
2023-02-01T05:33:59.284Z,5.64
2023-02-01T05:36:59.252Z,5.63
2023-02-01T05:39:59.265Z,5.67
2023-02-01T05:42:59.271Z,5.7
2023-02-01T05:45:59.361Z,5.71
2023-02-01T05:48:59.287Z,5.67
2023-02-01T05:52:00.437Z,5.71
2023-02-01T05:54:59.319Z,5.74
2023-02-01T05:57:59.313Z,5.72
2023-02-01T06:00:59.324Z,5.72
2023-02-01T06:03:59.335Z,5.73
2023-02-01T06:06:59.326Z,5.75
2023-02-01T06:09:59.354Z,5.77
2023-02-01T06:12:59.343Z,5.76
2023-02-01T06:15:59.362Z,5.77
2023-02-01T06:18:59.341Z,5.76
2023-02-01T06:21:59.346Z,5.77
2023-02-01T06:24:59.360Z,5.74
2023-02-01T06:27:59.396Z,5.74
2023-02-01T06:30:59.476Z,5.76
2023-02-01T06:33:59.380Z,5.76
2023-02-01T06:36:59.387Z,5.75
2023-02-01T06:39:59.388Z,5.79
2023-02-01T06:42:59.404Z,5.8
2023-02-01T06:45:59.425Z,5.81
2023-02-01T06:48:59.404Z,5.83
2023-02-01T06:51:59.412Z,5.83
2023-02-01T06:54:59.415Z,5.83
2023-02-01T06:57:59.422Z,5.83
2023-02-01T07:00:59.448Z,5.83
2023-02-01T07:03:59.467Z,5.82
2023-02-01T07:06:59.443Z,5.81
2023-02-01T07:09:59.447Z,5.85
2023-02-01T07:12:59.454Z,5.85
2023-02-01T07:15:59.471Z,5.81
2023-02-01T07:18:59.467Z,5.79
2023-02-01T07:21:59.503Z,5.79
2023-02-01T07:24:59.479Z,5.77
2023-02-01T07:27:59.467Z,5.77
2023-02-01T07:30:59.504Z,5.78
2023-02-01T07:33:59.477Z,5.8
2023-02-01T07:36:59.484Z,5.79
2023-02-01T07:39:59.559Z,5.83
2023-02-01T07:42:59.495Z,5.86
2023-02-01T07:45:59.530Z,5.83
2023-02-01T07:48:59.502Z,5.88
2023-02-01T07:51:59.507Z,5.89
2023-02-01T07:54:59.508Z,5.88
2023-02-01T07:57:59.554Z,5.92
2023-02-01T08:00:59.543Z,5.95
2023-02-01T08:03:59.528Z,5.96
2023-02-01T08:06:59.532Z,5.97
2023-02-01T08:09:59.537Z,5.98
2023-02-01T08:12:59.534Z,5.97
2023-02-01T08:15:59.570Z,5.95
2023-02-01T08:18:59.550Z,5.96
2023-02-01T08:21:59.549Z,5.99
2023-02-01T08:24:59.560Z,5.99
2023-02-01T08:27:59.559Z,5.98
2023-02-01T08:30:59.591Z,5.97
2023-02-01T08:33:59.597Z,5.96
2023-02-01T08:36:59.574Z,5.95
2023-02-01T08:39:59.590Z,5.92
2023-02-01T08:42:59.583Z,5.93
2023-02-01T08:45:59.624Z,5.93
2023-02-01T08:48:59.594Z,6.01
2023-02-01T08:52:03.870Z,6.08
2023-02-01T08:54:59.608Z,6.12
2023-02-01T08:57:59.612Z,6.13
2023-02-01T09:00:59.654Z,6.16
2023-02-01T09:03:59.737Z,6.17
2023-02-01T09:06:59.633Z,6.09
2023-02-01T09:09:59.662Z,6.05
2023-02-01T09:12:59.638Z,6.08
2023-02-01T09:15:59.741Z,6.08
2023-02-01T09:19:22.020Z,6.08
2023-02-01T09:21:59.661Z,6.09
2023-02-01T09:24:59.730Z,6.12
2023-02-01T09:27:59.683Z,6.12
2023-02-01T09:30:59.758Z,6.1
2023-02-01T09:33:59.694Z,6.09
2023-02-01T09:36:59.684Z,6.16
2023-02-01T09:39:59.680Z,6.2
2023-02-01T09:42:59.681Z,6.16
2023-02-01T09:45:59.741Z,6.14
2023-02-01T09:48:59.713Z,5.93
2023-02-01T09:51:59.703Z,5.83
2023-02-01T09:54:59.706Z,5.74
2023-02-01T09:57:59.721Z,5.68
2023-02-01T10:00:59.709Z,5.69
2023-02-01T10:03:59.726Z,5.71
2023-02-01T10:06:59.710Z,5.7
2023-02-01T10:09:59.714Z,5.73
2023-02-01T10:12:59.717Z,5.76
2023-02-01T10:15:59.850Z,5.78
2023-02-01T10:18:59.727Z,5.83
2023-02-01T10:21:59.765Z,5.86
2023-02-01T10:24:59.732Z,5.87
2023-02-01T10:27:59.742Z,5.91
2023-02-01T10:30:59.963Z,5.98
2023-02-01T10:33:59.753Z,6.07
2023-02-01T10:36:59.744Z,6.16
2023-02-01T10:39:59.811Z,6.31
2023-02-01T10:42:59.775Z,6.34
2023-02-01T10:45:59.824Z,6.41
2023-02-01T10:48:59.794Z,6.48
2023-02-01T10:51:59.771Z,6.45
2023-02-01T10:54:59.779Z,6.43
2023-02-01T10:57:59.806Z,6.41
2023-02-01T11:00:59.792Z,6.43
2023-02-01T11:03:59.800Z,6.46
2023-02-01T11:06:59.800Z,6.41
2023-02-01T11:09:59.820Z,6.4
2023-02-01T11:12:59.810Z,6.43
2023-02-01T11:15:59.863Z,6.34
2023-02-01T11:18:59.822Z,6.33
2023-02-01T11:21:59.822Z,6.43
2023-02-01T11:24:59.823Z,6.31
2023-02-01T11:27:59.833Z,6.34
2023-02-01T11:31:00.028Z,6.36
2023-02-01T11:33:59.861Z,6.25
2023-02-01T11:36:59.870Z,6.24
2023-02-01T11:39:59.849Z,6.23
2023-02-01T11:42:59.847Z,6.2
2023-02-01T11:45:59.847Z,6.16
2023-02-01T11:48:59.859Z,6.14
2023-02-01T11:51:59.880Z,6.17
2023-02-01T11:54:59.864Z,6.19
2023-02-01T11:57:59.876Z,6.18
2023-02-01T12:00:59.873Z,6.14
2023-02-01T12:03:59.881Z,6.22
2023-02-01T12:06:59.881Z,6.29
2023-02-01T12:09:59.957Z,6.25
2023-02-01T12:12:59.889Z,6.28
2023-02-01T12:15:59.896Z,6.19
2023-02-01T12:18:59.897Z,6.17
2023-02-01T12:21:59.904Z,6.11
2023-02-01T12:24:59.908Z,6.06
2023-02-01T12:28:00.510Z,6.05
2023-02-01T12:30:59.925Z,6
2023-02-01T12:33:59.924Z,5.97
2023-02-01T12:36:59.933Z,6
2023-02-01T12:39:59.935Z,6
2023-02-01T12:42:59.943Z,5.99
2023-02-01T12:46:00.031Z,6.04
2023-02-01T12:48:59.952Z,6.03
2023-02-01T12:51:59.957Z,6.04
2023-02-01T12:54:59.958Z,6
2023-02-01T12:57:59.961Z,5.99
2023-02-01T13:01:00.028Z,5.99
2023-02-01T13:03:59.992Z,5.99
2023-02-01T13:06:59.973Z,6.02
2023-02-01T13:09:59.978Z,6.01
2023-02-01T13:12:59.981Z,6
2023-02-01T13:15:59.987Z,6.02
2023-02-01T13:18:59.993Z,6.01
2023-02-01T13:22:00.025Z,5.99
2023-02-01T13:25:00.004Z,6.03
2023-02-01T13:28:00.007Z,5.99
2023-02-01T13:31:00.150Z,6.02
2023-02-01T13:34:00.013Z,6
2023-02-01T13:37:00.013Z,6.04
2023-02-01T13:40:00.046Z,6.01
2023-02-01T13:43:00.023Z,6.06
2023-02-01T13:46:00.066Z,6.06
2023-02-01T13:49:00.039Z,6.08
2023-02-01T13:52:00.060Z,6.06
2023-02-01T13:55:00.055Z,6.06
2023-02-01T13:58:00.101Z,6.07
2023-02-01T14:01:00.113Z,5.96
2023-02-01T14:04:00.145Z,5.94
2023-02-01T14:07:00.097Z,5.86
2023-02-01T14:10:00.095Z,5.9
2023-02-01T14:13:00.100Z,5.88
2023-02-01T14:16:00.183Z,5.86
2023-02-01T14:19:00.113Z,5.88
2023-02-01T14:22:00.178Z,5.84
2023-02-01T14:25:00.088Z,5.88
2023-02-01T14:28:00.091Z,5.86
2023-02-01T14:31:00.330Z,5.83
2023-02-01T14:34:00.126Z,5.83
2023-02-01T14:37:00.136Z,5.84
2023-02-01T14:40:00.121Z,5.82
2023-02-01T14:43:00.117Z,5.8
2023-02-01T14:46:00.202Z,5.81
2023-02-01T14:49:00.114Z,5.78
2023-02-01T14:52:00.149Z,5.77
2023-02-01T14:55:00.167Z,5.81
2023-02-01T14:58:00.135Z,5.81
2023-02-01T15:01:00.175Z,5.82
2023-02-01T15:04:00.154Z,5.84
2023-02-01T15:07:00.150Z,5.82
2023-02-01T15:10:00.300Z,5.73
2023-02-01T15:13:00.150Z,5.75
2023-02-01T15:16:00.200Z,5.76
2023-02-01T15:19:00.155Z,5.78
2023-02-01T15:22:00.165Z,5.74
2023-02-01T15:25:00.170Z,5.75
2023-02-01T15:28:00.202Z,5.78
2023-02-01T15:31:00.309Z,5.8
2023-02-01T15:34:00.197Z,5.73
2023-02-01T15:37:03.202Z,5.75
2023-02-01T15:40:00.191Z,5.76
2023-02-01T15:43:00.198Z,5.72
2023-02-01T15:46:00.226Z,5.72
2023-02-01T15:49:00.238Z,5.74
2023-02-01T15:52:00.202Z,5.73
2023-02-01T15:55:00.218Z,5.7
2023-02-01T15:58:00.224Z,5.7
2023-02-01T16:01:00.220Z,5.68
2023-02-01T16:04:00.253Z,5.68
2023-02-01T16:07:00.253Z,5.69
2023-02-01T16:10:00.234Z,5.67
2023-02-01T16:13:00.232Z,5.64
2023-02-01T16:16:00.244Z,5.64
2023-02-01T16:19:00.261Z,5.67
2023-02-01T16:22:00.296Z,5.67
2023-02-01T16:25:00.249Z,5.69
2023-02-01T16:28:00.285Z,5.65
2023-02-01T16:31:00.303Z,5.67
2023-02-01T16:34:00.270Z,5.7
2023-02-01T16:37:00.276Z,5.67
2023-02-01T16:40:00.305Z,5.65
2023-02-01T16:43:00.286Z,5.63
2023-02-01T16:46:00.315Z,5.62
2023-02-01T16:49:00.323Z,5.59
2023-02-01T16:52:00.302Z,5.56
2023-02-01T16:55:00.306Z,5.53
2023-02-01T16:58:00.328Z,5.55
2023-02-01T17:01:00.342Z,5.56
2023-02-01T17:04:00.358Z,5.58
2023-02-01T17:07:00.322Z,5.6
2023-02-01T17:10:00.321Z,5.54
2023-02-01T17:13:00.326Z,5.52
2023-02-01T17:16:00.529Z,5.51
2023-02-01T17:19:00.375Z,5.51
2023-02-01T17:22:00.340Z,5.49
2023-02-01T17:25:00.350Z,5.38
2023-02-01T17:28:00.362Z,5.35
2023-02-01T17:31:00.390Z,5.29
2023-02-01T17:34:00.388Z,5.29
2023-02-01T17:37:00.364Z,5.31
2023-02-01T17:40:00.484Z,5.33
2023-02-01T17:43:00.382Z,5.31
2023-02-01T17:46:00.426Z,5.35
2023-02-01T17:49:00.384Z,5.31
2023-02-01T17:52:00.414Z,5.32
2023-02-01T17:55:00.390Z,5.34
2023-02-01T17:58:00.395Z,5.35
2023-02-01T18:01:00.467Z,5.37
2023-02-01T18:04:00.416Z,5.37
2023-02-01T18:07:00.407Z,5.38
2023-02-01T18:10:00.443Z,5.38
2023-02-01T18:13:00.416Z,5.43
2023-02-01T18:16:00.421Z,5.46
2023-02-01T18:19:00.427Z,5.5
2023-02-01T18:22:00.428Z,5.53
2023-02-01T18:25:00.431Z,5.49
2023-02-01T18:28:00.472Z,5.49
2023-02-01T18:31:00.582Z,5.5
2023-02-01T18:34:00.454Z,5.56
2023-02-01T18:37:00.482Z,5.59
2023-02-01T18:40:00.446Z,5.62
2023-02-01T18:43:00.461Z,5.59
2023-02-01T18:46:00.580Z,5.6
2023-02-01T18:49:00.471Z,5.59
2023-02-01T18:52:00.452Z,5.58
2023-02-01T18:55:00.601Z,5.59
2023-02-01T18:58:00.458Z,5.55
2023-02-01T19:01:00.503Z,5.55
2023-02-01T19:04:04.992Z,5.56
2023-02-01T19:07:01.559Z,5.55
2023-02-01T19:10:00.467Z,5.52
2023-02-01T19:13:00.604Z,5.5
2023-02-01T19:16:00.481Z,5.45
2023-02-01T19:19:00.471Z,5.42
2023-02-01T19:22:00.497Z,5.4
2023-02-01T19:25:00.471Z,5.37
2023-02-01T19:28:00.480Z,5.34
2023-02-01T19:31:00.645Z,5.36
2023-02-01T19:34:00.489Z,5.34
2023-02-01T19:37:00.503Z,5.31
2023-02-01T19:40:00.536Z,5.34
2023-02-01T19:43:00.523Z,5.28
2023-02-01T19:46:00.608Z,5.32
2023-02-01T19:49:00.555Z,5.3
2023-02-01T19:52:00.555Z,5.29
2023-02-01T19:55:00.566Z,5.3
2023-02-01T19:58:00.595Z,5.3
2023-02-01T20:00:59.883Z,5.31
2023-02-01T20:03:59.719Z,5.32
2023-02-01T20:06:59.783Z,5.32
2023-02-01T20:09:59.747Z,5.33
2023-02-01T20:12:59.744Z,5.38
2023-02-01T20:15:59.848Z,5.41
2023-02-01T20:18:59.750Z,5.44
2023-02-01T20:21:59.756Z,5.48
2023-02-01T20:24:59.759Z,5.51
2023-02-01T20:28:00.622Z,5.5
2023-02-01T20:31:00.739Z,5.5
2023-02-01T20:34:00.656Z,5.49
2023-02-01T20:37:00.629Z,5.49
2023-02-01T20:40:00.639Z,5.49
2023-02-01T20:43:00.644Z,5.51
2023-02-01T20:46:00.644Z,5.48
2023-02-01T20:49:00.647Z,5.46
2023-02-01T20:52:00.678Z,5.46
2023-02-01T20:55:00.654Z,5.44
2023-02-01T20:58:00.657Z,5.44
2023-02-01T21:01:00.686Z,5.49
2023-02-01T21:04:00.664Z,5.49
2023-02-01T21:07:00.664Z,5.5
2023-02-01T21:10:00.706Z,5.48
2023-02-01T21:13:04.988Z,5.47
2023-02-01T21:16:00.729Z,5.51
2023-02-01T21:19:00.674Z,5.5
2023-02-01T21:22:00.675Z,5.55
2023-02-01T21:25:02.020Z,5.57
2023-02-01T21:28:00.702Z,5.62
2023-02-01T21:31:00.714Z,5.6
2023-02-01T21:34:00.677Z,5.63
2023-02-01T21:37:00.684Z,5.61
2023-02-01T21:40:00.678Z,5.6
2023-02-01T21:43:00.682Z,5.61
2023-02-01T21:46:00.733Z,5.59
2023-02-01T21:49:04.570Z,5.6
2023-02-01T21:52:00.697Z,5.6
2023-02-01T21:55:00.711Z,5.59
2023-02-01T21:58:00.695Z,5.59
2023-02-01T22:01:00.756Z,5.56
2023-02-01T22:04:00.717Z,5.58
2023-02-01T22:07:00.689Z,5.53
2023-02-01T22:10:00.697Z,5.56
2023-02-01T22:13:00.702Z,5.57
2023-02-01T22:16:00.694Z,5.55
2023-02-01T22:19:00.694Z,5.54
2023-02-01T22:22:00.722Z,5.53
2023-02-01T22:25:00.695Z,5.52
2023-02-01T22:28:31.371Z,5.53
2023-02-01T22:31:00.849Z,5.54
2023-02-01T22:34:00.699Z,5.53
2023-02-01T22:37:00.702Z,5.56
2023-02-01T22:40:00.724Z,5.54
2023-02-01T22:43:00.705Z,5.57
2023-02-01T22:46:00.748Z,5.57
2023-02-01T22:49:00.696Z,5.59
2023-02-01T22:52:00.703Z,5.61
2023-02-01T22:55:00.695Z,5.61
2023-02-01T22:58:00.728Z,5.62
2023-02-01T23:01:00.697Z,5.63
2023-02-01T23:04:00.703Z,5.63
2023-02-01T23:07:00.695Z,5.63
2023-02-01T23:10:00.700Z,5.66
2023-02-01T23:13:00.695Z,5.64
2023-02-01T23:16:00.753Z,5.65
2023-02-01T23:19:00.693Z,5.64
2023-02-01T23:22:00.692Z,5.64
2023-02-01T23:25:00.702Z,5.64
2023-02-01T23:28:00.695Z,5.63
2023-02-01T23:31:00.783Z,5.64
2023-02-01T23:34:00.726Z,5.64
2023-02-01T23:37:00.704Z,5.66
2023-02-01T23:40:00.705Z,5.67
2023-02-01T23:43:00.708Z,5.63
2023-02-01T23:46:00.726Z,5.63
2023-02-01T23:49:00.710Z,5.63
2023-02-01T23:52:00.739Z,5.62
2023-02-01T23:55:00.709Z,5.59
2023-02-01T23:58:00.708Z,5.6
